Time;durP1;ratioP1;P1;durP2;ratioP2;P2;SDS_P1;SDS_P2;PMS_P1;PMS_P2;Temp;Humidity;BMP_temperature;BMP_pressure;BME280_temperature;BME280_humidity;BME280_pressure;Samples;Min_cycle;Max_cycle;Signal;HPM_P1;HPM_P2
2021/03/21 00:01:41;;;;;;;13.80;5.27;;;;;;;;;;6223019;23;20207;-89
2021/03/21 00:04:45;;;;;;;14.87;5.40;;;;;;;;;;6221161;23;20702;-88
2021/03/21 00:07:53;;;;;;;11.63;5.13;;;;;;;;;;6222526;22;20198;-88
2021/03/21 00:11:01;;;;;;;14.00;5.80;;;;;;;;;;6222347;23;20286;-89
2021/03/21 00:14:06;;;;;;;15.90;5.67;;;;;;;;;;6222011;23;20174;-88
2021/03/21 00:17:12;;;;;;;11.90;5.10;;;;;;;;;;6222603;22;20271;-88
2021/03/21 00:20:18;;;;;;;12.67;5.33;;;;;;;;;;6221102;23;20171;-88
2021/03/21 00:23:22;;;;;;;14.03;6.30;;;;;;;;;;6223300;22;20171;-88
2021/03/21 00:26:27;;;;;;;16.03;6.10;;;;;;;;;;6222619;23;20651;-88
2021/03/21 00:29:31;;;;;;;14.87;6.03;;;;;;;;;;6221916;23;20167;-88
2021/03/21 00:32:37;;;;;;;19.07;6.30;;;;;;;;;;6221917;23;20174;-90
2021/03/21 00:35:42;;;;;;;12.10;5.80;;;;;;;;;;6221539;22;20190;-87
2021/03/21 00:38:48;;;;;;;16.10;5.83;;;;;;;;;;6222087;22;20175;-89
2021/03/21 00:41:52;;;;;;;13.30;6.03;;;;;;;;;;6223782;22;20163;-88
2021/03/21 00:44:57;;;;;;;16.50;6.20;;;;;;;;;;6222595;22;20170;-88
2021/03/21 00:48:02;;;;;;;11.97;5.97;;;;;;;;;;6222570;23;20246;-90
2021/03/21 00:51:08;;;;;;;12.07;5.57;;;;;;;;;;6222453;23;20173;-88
2021/03/21 00:54:13;;;;;;;15.40;6.20;;;;;;;;;;6221961;23;20203;-87
2021/03/21 00:57:17;;;;;;;12.83;5.57;;;;;;;;;;6222925;22;20686;-89
2021/03/21 01:00:24;;;;;;;14.70;6.20;;;;;;;;;;6223307;23;20223;-89
2021/03/21 01:03:29;;;;;;;13.40;6.57;;;;;;;;;;6221661;23;20162;-88
2021/03/21 01:06:34;;;;;;;16.07;6.03;;;;;;;;;;6205578;23;20151;-89
2021/03/21 01:09:38;;;;;;;14.83;6.30;;;;;;;;;;6205455;23;20174;-90
2021/03/21 01:12:42;;;;;;;14.60;5.63;;;;;;;;;;6224521;23;20178;-89
2021/03/21 01:15:47;;;;;;;14.43;6.30;;;;;;;;;;6223664;23;20194;-89
2021/03/21 01:18:53;;;;;;;14.27;6.87;;;;;;;;;;6223750;23;20745;-89
2021/03/21 01:21:57;;;;;;;14.97;5.97;;;;;;;;;;6222680;23;20188;-89
2021/03/21 01:25:02;;;;;;;14.93;6.37;;;;;;;;;;6223573;23;20159;-88
2021/03/21 01:28:18;;;;;;;15.27;7.27;;;;;;;;;;6223519;23;20164;-89
2021/03/21 01:31:23;;;;;;;12.77;6.60;;;;;;;;;;6224096;22;20168;-88
2021/03/21 01:34:28;;;;;;;13.73;6.33;;;;;;;;;;6224261;23;20167;-89
2021/03/21 01:37:34;;;;;;;14.30;5.97;;;;;;;;;;6224679;23;20183;-88
2021/03/21 01:40:39;;;;;;;14.20;5.90;;;;;;;;;;6224521;22;20151;-88
2021/03/21 01:43:43;;;;;;;12.37;5.83;;;;;;;;;;6224873;22;20170;-89
2021/03/21 01:47:07;;;;;;;15.37;6.27;;;;;;;;;;6224051;22;20175;-89
2021/03/21 01:50:24;;;;;;;19.23;6.37;;;;;;;;;;6224688;23;20167;-89
2021/03/21 01:53:31;;;;;;;14.40;6.43;;;;;;;;;;6224637;23;20513;-89
2021/03/21 01:56:38;;;;;;;12.87;5.77;;;;;;;;;;6193962;23;20195;-88
2021/03/21 01:59:42;;;;;;;14.80;6.07;;;;;;;;;;6178250;23;20655;-89
2021/03/21 02:02:47;;;;;;;11.93;6.13;;;;;;;;;;6180156;23;20171;-88
2021/03/21 02:05:56;;;;;;;13.80;5.97;;;;;;;;;;6180092;23;20255;-89
2021/03/21 02:09:06;;;;;;;17.87;6.27;;;;;;;;;;6178939;23;20196;-89
2021/03/21 02:12:16;;;;;;;16.50;6.10;;;;;;;;;;6197434;23;20510;-89
2021/03/21 02:15:23;;;;;;;15.03;6.50;;;;;;;;;;6179429;23;20168;-89
2021/03/21 02:18:30;;;;;;;13.70;5.97;;;;;;;;;;6179676;23;20171;-88
2021/03/21 02:21:38;;;;;;;13.73;6.30;;;;;;;;;;6179973;23;20196;-89
2021/03/21 02:25:01;;;;;;;16.40;5.97;;;;;;;;;;6178576;23;20211;-89
2021/03/21 02:28:15;;;;;;;13.40;6.53;;;;;;;;;;6151067;22;20268;-89
2021/03/21 02:31:24;;;;;;;14.40;6.73;;;;;;;;;;6179017;23;20188;-89
2021/03/21 02:34:33;;;;;;;13.70;5.93;;;;;;;;;;6179243;23;20186;-89
2021/03/21 02:37:39;;;;;;;17.73;6.90;;;;;;;;;;6179404;23;20199;-88
2021/03/21 02:40:46;;;;;;;13.40;6.17;;;;;;;;;;6178675;23;20176;-90
2021/03/21 02:43:53;;;;;;;13.67;6.30;;;;;;;;;;6178716;23;20176;-88
2021/03/21 02:47:00;;;;;;;11.77;5.67;;;;;;;;;;6177243;23;20217;-89
2021/03/21 02:50:07;;;;;;;12.47;5.53;;;;;;;;;;6178725;23;20168;-88
2021/03/21 02:53:13;;;;;;;15.43;6.13;;;;;;;;;;6178684;22;20824;-88
2021/03/21 02:56:20;;;;;;;14.97;6.43;;;;;;;;;;6179038;23;20208;-89
2021/03/21 02:59:29;;;;;;;12.07;5.57;;;;;;;;;;6179278;23;20183;-89
2021/03/21 03:02:39;;;;;;;12.33;6.00;;;;;;;;;;6179823;23;20183;-89
2021/03/21 03:05:44;;;;;;;12.60;6.03;;;;;;;;;;6179220;23;20176;-90
2021/03/21 03:08:50;;;;;;;13.40;6.27;;;;;;;;;;6179450;23;20172;-88
2021/03/21 03:11:57;;;;;;;11.60;6.30;;;;;;;;;;6179290;22;20228;-90
2021/03/21 03:15:04;;;;;;;14.00;6.57;;;;;;;;;;6180327;22;20152;-89
2021/03/21 03:18:16;;;;;;;13.07;6.20;;;;;;;;;;6180456;23;20610;-88
2021/03/21 03:21:23;;;;;;;12.57;5.80;;;;;;;;;;6179686;23;20184;-90
2021/03/21 03:24:34;;;;;;;15.10;6.90;;;;;;;;;;6179030;22;20168;-90
2021/03/21 03:27:43;;;;;;;11.30;5.77;;;;;;;;;;6180032;23;20172;-90
2021/03/21 03:30:51;;;;;;;12.27;6.27;;;;;;;;;;6179766;23;20188;-89
2021/03/21 03:33:56;;;;;;;11.67;5.97;;;;;;;;;;6180059;23;20168;-87
2021/03/21 03:37:01;;;;;;;12.90;6.67;;;;;;;;;;6179652;23;20268;-89
2021/03/21 03:40:08;;;;;;;14.80;6.93;;;;;;;;;;6178322;23;20211;-88
2021/03/21 03:43:20;;;;;;;16.33;6.83;;;;;;;;;;6177967;23;20164;-89
2021/03/21 03:46:28;;;;;;;13.07;7.03;;;;;;;;;;6178573;23;20172;-89
2021/03/21 03:49:40;;;;;;;18.30;7.37;;;;;;;;;;6176870;23;20226;-89
2021/03/21 03:52:53;;;;;;;14.60;6.33;;;;;;;;;;6178295;23;20484;-89
2021/03/21 03:55:59;;;;;;;15.90;7.30;;;;;;;;;;6210202;23;20222;-87
2021/03/21 03:59:06;;;;;;;16.37;7.53;;;;;;;;;;6223322;23;20571;-91
2021/03/21 04:02:13;;;;;;;14.03;7.23;;;;;;;;;;6224480;23;20146;-89
2021/03/21 04:05:24;;;;;;;14.83;6.83;;;;;;;;;;6224189;23;20175;-89
2021/03/21 04:08:34;;;;;;;12.47;6.17;;;;;;;;;;6225884;23;20171;-90
2021/03/21 04:11:41;;;;;;;16.27;6.80;;;;;;;;;;6224468;23;20175;-90
2021/03/21 04:14:47;;;;;;;12.67;7.00;;;;;;;;;;6225294;23;20167;-90
2021/03/21 04:17:53;;;;;;;16.13;6.30;;;;;;;;;;6226486;23;20199;-88
2021/03/21 04:21:02;;;;;;;13.50;6.97;;;;;;;;;;6226298;23;20170;-88
2021/03/21 04:24:10;;;;;;;18.03;7.10;;;;;;;;;;6226540;23;20376;-89
2021/03/21 04:27:18;;;;;;;16.10;6.90;;;;;;;;;;6225909;23;20155;-88
2021/03/21 04:30:28;;;;;;;16.87;7.50;;;;;;;;;;6225201;23;20171;-89
2021/03/21 04:33:36;;;;;;;16.30;6.93;;;;;;;;;;6226709;23;20219;-87
2021/03/21 04:36:44;;;;;;;15.17;7.17;;;;;;;;;;6226279;22;20186;-89
2021/03/21 04:39:49;;;;;;;16.30;7.17;;;;;;;;;;6225333;23;20175;-89
2021/03/21 04:42:56;;;;;;;18.33;6.87;;;;;;;;;;6225173;23;20191;-89
2021/03/21 04:46:03;;;;;;;14.67;7.00;;;;;;;;;;6223411;23;20183;-89
2021/03/21 04:49:07;;;;;;;13.87;7.00;;;;;;;;;;6226054;23;20256;-89
2021/03/21 04:52:17;;;;;;;17.93;8.07;;;;;;;;;;6226115;23;20623;-87
2021/03/21 04:55:23;;;;;;;14.17;7.30;;;;;;;;;;6225118;23;20229;-90
2021/03/21 04:58:32;;;;;;;15.17;6.90;;;;;;;;;;6226198;23;20240;-89
2021/03/21 05:01:39;;;;;;;18.27;7.37;;;;;;;;;;6226388;23;20203;-90
2021/03/21 05:04:45;;;;;;;15.83;7.67;;;;;;;;;;6227174;23;20207;-88
2021/03/21 05:07:54;;;;;;;17.03;7.53;;;;;;;;;;6227484;23;20218;-89
2021/03/21 05:10:59;;;;;;;14.60;7.33;;;;;;;;;;6226987;23;20168;-88
2021/03/21 05:14:07;;;;;;;16.50;6.97;;;;;;;;;;6227345;23;20214;-87
2021/03/21 05:17:16;;;;;;;17.23;7.73;;;;;;;;;;6226820;23;20177;-88
2021/03/21 05:20:25;;;;;;;18.13;7.37;;;;;;;;;;6226324;22;20179;-88
2021/03/21 05:23:36;;;;;;;18.27;7.80;;;;;;;;;;6227700;23;20163;-89
2021/03/21 05:26:44;;;;;;;16.60;6.93;;;;;;;;;;6227125;23;20167;-88
2021/03/21 05:29:52;;;;;;;16.90;8.07;;;;;;;;;;6228062;22;20218;-90
2021/03/21 05:32:56;;;;;;;14.30;6.87;;;;;;;;;;6227490;23;20210;-88
2021/03/21 05:36:08;;;;;;;16.43;7.47;;;;;;;;;;6226850;22;20262;-89
2021/03/21 05:39:20;;;;;;;16.23;7.77;;;;;;;;;;6228519;22;20155;-87
2021/03/21 05:42:43;;;;;;;15.53;7.37;;;;;;;;;;6227658;23;20207;-88
2021/03/21 05:46:06;;;;;;;13.47;7.03;;;;;;;;;;6227708;23;20167;-89
2021/03/21 05:49:26;;;;;;;18.50;8.10;;;;;;;;;;6246334;22;20215;-89
2021/03/21 05:52:54;;;;;;;18.00;8.23;;;;;;;;;;6228480;22;20287;-90
2021/03/21 05:56:05;;;;;;;16.83;7.43;;;;;;;;;;6227379;23;20210;-88
2021/03/21 05:59:15;;;;;;;17.80;8.10;;;;;;;;;;6227746;23;20501;-89
2021/03/21 06:02:32;;;;;;;16.40;7.83;;;;;;;;;;6227562;22;20175;-88
2021/03/21 06:05:52;;;;;;;19.30;8.57;;;;;;;;;;6225865;23;20606;-88
2021/03/21 06:09:01;;;;;;;16.90;7.93;;;;;;;;;;6227428;23;20179;-87
2021/03/21 06:12:13;;;;;;;18.23;8.37;;;;;;;;;;6225825;23;20247;-87
2021/03/21 06:15:38;;;;;;;15.73;7.90;;;;;;;;;;6227801;22;20194;-87
2021/03/21 06:18:47;;;;;;;19.23;8.43;;;;;;;;;;6245022;22;20168;-88
2021/03/21 06:22:09;;;;;;;18.17;8.30;;;;;;;;;;6228136;23;20247;-88
2021/03/21 06:25:24;;;;;;;17.73;8.03;;;;;;;;;;6227174;22;20167;-88
2021/03/21 06:28:48;;;;;;;18.63;8.53;;;;;;;;;;6228681;23;20168;-88
2021/03/21 06:32:11;;;;;;;21.87;8.37;;;;;;;;;;6227686;23;20159;-91
2021/03/21 06:35:25;;;;;;;18.50;7.83;;;;;;;;;;6228507;23;20572;-89
2021/03/21 06:38:42;;;;;;;19.60;8.47;;;;;;;;;;6230460;22;20183;-88
2021/03/21 06:42:01;;;;;;;22.57;9.07;;;;;;;;;;6228698;22;20183;-88
2021/03/21 06:45:40;;;;;;;18.47;8.60;;;;;;;;;;6228703;23;20646;-87
2021/03/21 06:48:59;;;;;;;19.07;8.60;;;;;;;;;;6227842;22;20171;-90
2021/03/21 06:52:10;;;;;;;17.57;8.73;;;;;;;;;;6226505;23;20176;-88
2021/03/21 06:55:33;;;;;;;21.60;9.23;;;;;;;;;;6228266;23;20187;-89
2021/03/21 06:58:53;;;;;;;18.57;9.23;;;;;;;;;;6228592;22;20194;-88
2021/03/21 07:02:09;;;;;;;18.10;8.23;;;;;;;;;;6227317;23;20191;-88
2021/03/21 07:05:37;;;;;;;21.17;9.20;;;;;;;;;;6225278;22;20215;-89
2021/03/21 07:09:00;;;;;;;20.63;8.90;;;;;;;;;;6226399;23;20266;-89
2021/03/21 07:12:21;;;;;;;22.57;9.27;;;;;;;;;;6226685;23;20312;-87
2021/03/21 07:15:40;;;;;;;21.40;9.17;;;;;;;;;;6227880;23;20212;-89
2021/03/21 07:19:03;;;;;;;24.10;9.53;;;;;;;;;;6228072;23;20549;-90
2021/03/21 07:22:31;;;;;;;17.03;8.77;;;;;;;;;;6226145;23;20171;-88
2021/03/21 07:25:55;;;;;;;20.80;8.63;;;;;;;;;;6227046;23;20171;-90
2021/03/21 07:29:17;;;;;;;20.27;9.37;;;;;;;;;;6226891;22;20224;-89
2021/03/21 07:32:38;;;;;;;22.97;9.30;;;;;;;;;;6227267;23;20182;-89
2021/03/21 07:35:52;;;;;;;17.93;8.47;;;;;;;;;;6226477;23;20240;-88
2021/03/21 07:39:15;;;;;;;21.33;9.23;;;;;;;;;;6224839;23;20175;-89
2021/03/21 07:42:34;;;;;;;18.57;8.80;;;;;;;;;;6227307;23;20168;-89
2021/03/21 07:45:48;;;;;;;17.77;8.40;;;;;;;;;;6226138;23;20202;-88
2021/03/21 07:49:08;;;;;;;20.63;9.03;;;;;;;;;;6226311;22;20171;-88
2021/03/21 07:52:24;;;;;;;18.70;9.03;;;;;;;;;;6226327;23;20501;-89
2021/03/21 07:55:31;;;;;;;17.43;8.43;;;;;;;;;;6225274;23;20187;-90
2021/03/21 07:58:36;;;;;;;19.40;8.20;;;;;;;;;;6226637;23;20220;-89
2021/03/21 08:01:41;;;;;;;21.23;8.90;;;;;;;;;;6225894;22;20295;-89
2021/03/21 08:04:47;;;;;;;17.37;8.43;;;;;;;;;;6225873;22;20222;-89
2021/03/21 08:07:55;;;;;;;19.83;8.63;;;;;;;;;;6226354;23;20188;-88
2021/03/21 08:11:02;;;;;;;20.67;9.33;;;;;;;;;;6227255;22;20171;-88
2021/03/21 08:14:13;;;;;;;21.00;8.93;;;;;;;;;;6245410;23;20223;-89
2021/03/21 08:17:20;;;;;;;17.97;8.23;;;;;;;;;;6226445;23;20219;-90
2021/03/21 08:20:27;;;;;;;18.50;8.50;;;;;;;;;;6243451;23;20167;-90
2021/03/21 08:23:35;;;;;;;24.00;8.93;;;;;;;;;;6227156;23;20159;-89
2021/03/21 08:26:42;;;;;;;19.30;8.50;;;;;;;;;;6227137;22;20605;-88
2021/03/21 08:29:56;;;;;;;17.33;8.70;;;;;;;;;;6227127;23;20175;-89
2021/03/21 08:33:02;;;;;;;18.13;8.53;;;;;;;;;;6227082;23;20219;-88
2021/03/21 08:36:16;;;;;;;18.63;8.07;;;;;;;;;;6229398;23;20202;-89
2021/03/21 08:39:24;;;;;;;15.60;7.67;;;;;;;;;;6229506;23;20172;-89
2021/03/21 08:42:39;;;;;;;16.40;8.33;;;;;;;;;;6224932;23;20175;-89
2021/03/21 08:45:45;;;;;;;22.10;8.73;;;;;;;;;;6225941;23;20171;-88
2021/03/21 08:49:00;;;;;;;18.50;8.50;;;;;;;;;;6228139;23;20151;-90
2021/03/21 08:52:06;;;;;;;19.50;8.03;;;;;;;;;;6226782;23;20171;-88
2021/03/21 08:55:23;;;;;;;25.93;10.30;;;;;;;;;;6228928;23;20243;-88
2021/03/21 08:58:28;;;;;;;15.47;7.90;;;;;;;;;;6226606;23;20187;-89
2021/03/21 09:01:32;;;;;;;16.63;7.80;;;;;;;;;;6226675;22;20213;-87
2021/03/21 09:04:38;;;;;;;20.17;8.80;;;;;;;;;;6242062;23;20175;-89
2021/03/21 09:07:44;;;;;;;17.17;8.27;;;;;;;;;;6227709;22;20175;-89
2021/03/21 09:10:51;;;;;;;18.53;8.00;;;;;;;;;;6245892;23;20271;-89
2021/03/21 09:14:00;;;;;;;15.03;7.23;;;;;;;;;;6245499;23;20239;-87
2021/03/21 09:17:06;;;;;;;15.57;7.47;;;;;;;;;;6225610;23;20207;-87
2021/03/21 09:20:16;;;;;;;17.83;8.07;;;;;;;;;;6225602;23;20191;-87
2021/03/21 09:23:30;;;;;;;13.30;6.30;;;;;;;;;;6227147;23;20216;-89
2021/03/21 09:26:37;;;;;;;9.73;4.77;;;;;;;;;;6226706;23;20186;-88
2021/03/21 09:29:42;;;;;;;8.23;4.10;;;;;;;;;;6226111;23;20167;-89
2021/03/21 09:32:50;;;;;;;8.60;3.90;;;;;;;;;;6226644;23;20234;-87
2021/03/21 09:35:59;;;;;;;8.07;4.03;;;;;;;;;;6225454;23;20174;-87
2021/03/21 09:39:06;;;;;;;9.53;4.40;;;;;;;;;;6243573;23;20182;-90
2021/03/21 09:42:11;;;;;;;9.43;4.33;;;;;;;;;;6226697;22;20623;-90
2021/03/21 09:45:16;;;;;;;7.93;4.33;;;;;;;;;;6226684;23;20247;-87
2021/03/21 09:48:26;;;;;;;8.50;4.23;;;;;;;;;;6244425;23;20256;-87
2021/03/21 09:51:36;;;;;;;14.40;4.83;;;;;;;;;;6227583;23;20168;-89
2021/03/21 09:54:46;;;;;;;8.83;4.23;;;;;;;;;;6226396;22;20183;-88
2021/03/21 09:57:58;;;;;;;9.63;4.53;;;;;;;;;;6226322;23;20244;-88
2021/03/21 10:01:06;;;;;;;11.80;4.07;;;;;;;;;;6226286;23;20547;-89
2021/03/21 10:04:20;;;;;;;9.60;4.37;;;;;;;;;;6225370;23;20172;-88
2021/03/21 10:07:29;;;;;;;13.73;5.10;;;;;;;;;;6225283;23;20175;-87
2021/03/21 10:10:37;;;;;;;8.90;4.20;;;;;;;;;;6226792;23;20224;-87
2021/03/21 10:13:43;;;;;;;10.73;3.80;;;;;;;;;;6212414;23;20167;-89
2021/03/21 10:16:48;;;;;;;9.73;4.60;;;;;;;;;;6226422;23;20246;-88
2021/03/21 10:19:56;;;;;;;7.70;3.90;;;;;;;;;;6224378;23;20163;-88
2021/03/21 10:23:01;;;;;;;9.73;4.20;;;;;;;;;;6225387;23;20229;-87
2021/03/21 10:26:07;;;;;;;7.80;3.50;;;;;;;;;;6226018;23;20236;-88
2021/03/21 10:29:26;;;;;;;8.47;4.07;;;;;;;;;;6225574;23;20235;-88
2021/03/21 10:32:32;;;;;;;11.53;3.70;;;;;;;;;;6208731;23;20174;-88
2021/03/21 10:35:50;;;;;;;13.57;4.03;;;;;;;;;;6226730;22;20171;-88
2021/03/21 10:38:55;;;;;;;5.50;3.40;;;;;;;;;;6226546;23;20258;-88
2021/03/21 10:42:02;;;;;;;8.97;4.43;;;;;;;;;;6225532;23;20211;-89
2021/03/21 10:45:08;;;;;;;11.70;4.53;;;;;;;;;;6208304;23;20171;-88
2021/03/21 10:48:33;;;;;;;8.27;4.10;;;;;;;;;;6206951;23;20238;-87
2021/03/21 10:52:08;;;;;;;9.40;4.10;;;;;;;;;;6225370;22;20170;-88
2021/03/21 10:55:37;;;;;;;9.67;4.50;;;;;;;;;;6060183;23;20199;-88
2021/03/21 10:59:07;;;;;;;7.97;3.90;;;;;;;;;;6177162;23;20223;-88
2021/03/21 11:02:22;;;;;;;8.53;4.13;;;;;;;;;;6177412;23;20180;-89
2021/03/21 11:05:31;;;;;;;13.10;4.47;;;;;;;;;;6194857;23;20164;-90
2021/03/21 11:08:35;;;;;;;10.80;5.10;;;;;;;;;;6177356;23;20623;-89
2021/03/21 11:11:41;;;;;;;9.57;4.00;;;;;;;;;;6193556;23;20152;-88
2021/03/21 11:14:47;;;;;;;11.03;4.40;;;;;;;;;;6178138;22;20156;-88
2021/03/21 11:17:52;;;;;;;12.27;4.40;;;;;;;;;;6177849;23;20195;-87
2021/03/21 11:21:05;;;;;;;9.57;4.10;;;;;;;;;;6177722;23;20538;-89
2021/03/21 11:24:18;;;;;;;10.43;5.10;;;;;;;;;;6180672;23;20168;-89
2021/03/21 11:27:32;;;;;;;13.60;4.77;;;;;;;;;;6180392;23;20172;-89
2021/03/21 11:30:38;;;;;;;9.33;4.37;;;;;;;;;;6182098;23;20172;-88
2021/03/21 11:33:45;;;;;;;9.87;4.70;;;;;;;;;;6181418;23;20167;-89
2021/03/21 11:36:59;;;;;;;10.90;4.13;;;;;;;;;;6180453;23;20196;-89
2021/03/21 11:40:06;;;;;;;15.10;5.93;;;;;;;;;;6182032;23;20154;-91
2021/03/21 11:43:24;;;;;;;9.87;5.17;;;;;;;;;;6181073;22;20192;-89
2021/03/21 11:46:31;;;;;;;13.37;5.20;;;;;;;;;;6181905;23;20172;-88
2021/03/21 11:49:36;;;;;;;12.77;4.77;;;;;;;;;;6181426;23;20188;-89
2021/03/21 11:52:50;;;;;;;12.67;5.33;;;;;;;;;;6181737;23;20247;-89
2021/03/21 11:55:56;;;;;;;9.57;4.50;;;;;;;;;;6212604;23;20233;-89
2021/03/21 11:59:04;;;;;;;12.50;5.13;;;;;;;;;;6229634;23;20195;-88
2021/03/21 12:02:30;;;;;;;9.47;4.63;;;;;;;;;;6230493;23;20191;-89
2021/03/21 12:05:40;;;;;;;16.03;5.63;;;;;;;;;;6229479;22;20162;-89
2021/03/21 12:08:45;;;;;;;12.87;6.03;;;;;;;;;;6229368;22;20218;-89
2021/03/21 12:11:50;;;;;;;11.57;5.33;;;;;;;;;;6229690;23;20171;-88
2021/03/21 12:14:58;;;;;;;17.37;5.33;;;;;;;;;;6230182;22;20166;-89
2021/03/21 12:18:08;;;;;;;12.10;5.03;;;;;;;;;;6229087;23;20194;-89
2021/03/21 12:21:18;;;;;;;15.27;6.10;;;;;;;;;;6229132;23;20235;-89
2021/03/21 12:24:24;;;;;;;9.93;4.73;;;;;;;;;;6228076;22;20163;-86
2021/03/21 12:27:30;;;;;;;11.17;5.57;;;;;;;;;;6228840;23;20178;-87
2021/03/21 12:30:37;;;;;;;10.20;5.37;;;;;;;;;;6229648;23;20171;-89
2021/03/21 12:33:41;;;;;;;14.60;5.30;;;;;;;;;;6229019;23;20167;-89
2021/03/21 12:37:01;;;;;;;17.83;6.30;;;;;;;;;;6228545;22;20273;-86
2021/03/21 12:40:19;;;;;;;12.63;5.67;;;;;;;;;;6228488;22;20246;-88
2021/03/21 12:43:25;;;;;;;13.23;5.80;;;;;;;;;;6224898;22;20151;-90
2021/03/21 12:46:41;;;;;;;14.20;5.93;;;;;;;;;;6223706;23;20271;-90
2021/03/21 12:49:50;;;;;;;10.87;5.10;;;;;;;;;;6225042;22;20191;-87
2021/03/21 12:52:59;;;;;;;13.47;5.43;;;;;;;;;;6241673;23;20194;-88
2021/03/21 12:56:04;;;;;;;12.60;6.17;;;;;;;;;;6224465;23;20177;-87
2021/03/21 12:59:08;;;;;;;12.63;6.30;;;;;;;;;;6227634;23;20243;-89
2021/03/21 13:02:24;;;;;;;13.73;5.70;;;;;;;;;;6226431;22;20168;-88
2021/03/21 13:05:31;;;;;;;13.30;6.37;;;;;;;;;;6226944;22;20210;-91
2021/03/21 13:08:37;;;;;;;13.43;6.50;;;;;;;;;;6226670;23;20167;-90
2021/03/21 13:11:42;;;;;;;20.20;7.13;;;;;;;;;;6227289;23;20196;-89
2021/03/21 13:14:48;;;;;;;15.93;6.77;;;;;;;;;;6226977;23;20207;-90
2021/03/21 13:17:55;;;;;;;17.63;7.20;;;;;;;;;;6226857;22;20670;-89
2021/03/21 13:21:02;;;;;;;16.40;7.70;;;;;;;;;;6227770;23;20171;-90
2021/03/21 13:24:09;;;;;;;17.50;6.63;;;;;;;;;;6226553;23;20254;-89
2021/03/21 13:27:15;;;;;;;13.87;6.17;;;;;;;;;;6226636;23;20164;-88
2021/03/21 13:30:25;;;;;;;13.53;6.37;;;;;;;;;;6246034;23;20231;-89
2021/03/21 13:33:34;;;;;;;17.60;7.03;;;;;;;;;;6230000;23;20175;-89
2021/03/21 13:36:38;;;;;;;13.63;6.97;;;;;;;;;;6230034;22;20211;-87
2021/03/21 13:39:44;;;;;;;16.43;7.20;;;;;;;;;;6211572;23;20166;-88
2021/03/21 13:42:49;;;;;;;16.03;7.13;;;;;;;;;;6228916;23;20171;-87
2021/03/21 13:45:55;;;;;;;17.83;7.73;;;;;;;;;;6247525;23;20618;-87
2021/03/21 13:49:00;;;;;;;18.20;7.77;;;;;;;;;;6229160;22;20238;-89
2021/03/21 13:52:07;;;;;;;17.63;7.43;;;;;;;;;;6229450;23;20191;-90
2021/03/21 13:55:22;;;;;;;16.57;7.20;;;;;;;;;;6227683;23;20256;-91
2021/03/21 13:58:41;;;;;;;15.30;6.40;;;;;;;;;;6237006;23;20202;-89
2021/03/21 14:01:46;;;;;;;17.30;7.87;;;;;;;;;;6230082;23;20184;-90
2021/03/21 14:04:52;;;;;;;12.73;6.67;;;;;;;;;;6229349;23;20195;-89
2021/03/21 14:07:57;;;;;;;14.27;7.30;;;;;;;;;;6229942;23;20638;-89
2021/03/21 14:11:13;;;;;;;14.87;6.97;;;;;;;;;;6248049;23;20601;-89
2021/03/21 14:14:24;;;;;;;16.30;7.97;;;;;;;;;;6237000;23;20175;-89
2021/03/21 14:17:30;;;;;;;14.83;7.33;;;;;;;;;;6232308;23;20215;-89
2021/03/21 14:20:37;;;;;;;15.07;7.93;;;;;;;;;;6228762;22;20191;-90
2021/03/21 14:23:41;;;;;;;19.63;7.57;;;;;;;;;;6229606;22;20163;-90
2021/03/21 14:26:47;;;;;;;17.47;8.30;;;;;;;;;;6230413;22;20183;-91
2021/03/21 14:29:52;;;;;;;20.20;8.97;;;;;;;;;;6231471;23;20167;-89
2021/03/21 14:32:57;;;;;;;16.87;8.27;;;;;;;;;;6231050;22;20263;-90
2021/03/21 14:36:02;;;;;;;16.60;7.70;;;;;;;;;;6230178;22;20167;-90
2021/03/21 14:39:07;;;;;;;16.00;8.67;;;;;;;;;;6230592;23;20167;-89
2021/03/21 14:42:14;;;;;;;18.37;8.70;;;;;;;;;;6247859;22;20214;-90
2021/03/21 14:45:21;;;;;;;17.07;8.50;;;;;;;;;;6229575;23;20182;-90
2021/03/21 14:48:27;;;;;;;17.80;8.73;;;;;;;;;;6231542;23;20661;-89
2021/03/21 14:51:32;;;;;;;17.77;8.50;;;;;;;;;;6231249;23;20187;-89
2021/03/21 14:54:37;;;;;;;22.17;9.53;;;;;;;;;;6229958;22;20248;-88
2021/03/21 14:57:45;;;;;;;18.37;8.70;;;;;;;;;;6233771;23;20242;-88
2021/03/21 15:00:50;;;;;;;15.93;8.73;;;;;;;;;;6233652;23;20163;-90
2021/03/21 15:03:55;;;;;;;22.10;9.67;;;;;;;;;;6233917;23;20167;-89
2021/03/21 15:07:01;;;;;;;22.73;9.80;;;;;;;;;;6233030;23;20199;-89
2021/03/21 15:10:06;;;;;;;20.80;8.53;;;;;;;;;;6234506;23;20167;-89
2021/03/21 15:13:16;;;;;;;18.33;7.33;;;;;;;;;;6232485;23;20191;-89
2021/03/21 15:16:22;;;;;;;18.63;8.70;;;;;;;;;;6233399;23;20171;-89
2021/03/21 19:52:16;;;;;;;35.97;15.93;;;;;;;;;;6161213;22;21501;-91
2021/03/21 19:55:22;;;;;;;35.63;16.63;;;;;;;;;;6203124;22;20199;-90
2021/03/21 23:00:34;;;;;;;40.60;17.57;;;;;;;;;;6158191;22;20416;-91
2021/03/21 23:03:38;;;;;;;40.93;17.97;;;;;;;;;;6211022;22;20195;-90
2021/03/21 23:06:43;;;;;;;42.17;18.30;;;;;;;;;;6211470;22;20167;-90
2021/03/21 23:09:48;;;;;;;39.73;17.90;;;;;;;;;;6211489;23;20167;-91
2021/03/21 23:12:53;;;;;;;38.60;16.97;;;;;;;;;;6212998;23;20549;-92
2021/03/21 23:15:59;;;;;;;31.67;16.13;;;;;;;;;;6212079;23;20722;-92
2021/03/21 23:19:04;;;;;;;37.00;16.70;;;;;;;;;;6212397;23;20187;-91
2021/03/21 23:22:09;;;;;;;34.97;15.97;;;;;;;;;;6213510;23;20177;-91
2021/03/21 23:25:15;;;;;;;34.73;16.97;;;;;;;;;;6213663;23;20166;-91
2021/03/21 23:28:21;;;;;;;43.57;17.20;;;;;;;;;;6214067;23;20392;-90
2021/03/21 23:31:28;;;;;;;33.03;17.07;;;;;;;;;;6211933;23;20195;-91
2021/03/21 23:34:33;;;;;;;40.83;16.93;;;;;;;;;;6209345;23;20213;-91
2021/03/21 23:37:40;;;;;;;36.37;17.63;;;;;;;;;;6190623;22;20219;-90
2021/03/21 23:40:46;;;;;;;38.77;17.20;;;;;;;;;;6198904;23;20183;-91
2021/03/21 23:43:50;;;;;;;36.57;17.43;;;;;;;;;;6197835;23;20192;-89
2021/03/21 23:46:56;;;;;;;39.40;17.33;;;;;;;;;;6198451;23;20220;-91
2021/03/21 23:50:02;;;;;;;37.13;17.13;;;;;;;;;;6197973;23;20176;-91
2021/03/21 23:53:07;;;;;;;35.13;17.13;;;;;;;;;;6198165;22;20172;-92
2021/03/21 23:56:11;;;;;;;40.13;17.27;;;;;;;;;;6198580;23;20236;-91
2021/03/21 23:59:16;;;;;;;32.57;16.10;;;;;;;;;;6197791;23;20191;-90
